Terminal Aerodrome Forecast
Issued by NWS

Home | Current Version | Previous Version | Text Only | Print | Product List | Glossary Off
Versions: 1 2 3 4 5 6 7 8 9 10 11 12 13 14

000
FTUS45 KGGW 261120
TAFGDV
TAF
KGDV 261120Z 2612/2712 02006KT P6SM OVC005
     FM261300 04005KT P6SM VCSH OVC010
     FM270600 05007KT P6SM -RASN OVC003
      AMD LTD TO CLD VIS AND WIND=

USA.gov is the U.S. government's official web portal to all federal, state and local government web resources and services.